This is the latest recevied weather packets stored in our database for station/object E22ZMG-10. If no packets are shown the sender has not sent any weather packets the latest 1 day(s).
| Time | Temp. | Humidity | Pressure | Rain* | Wind** | Luminosity | Snow |
|---|---|---|---|---|---|---|---|
| 1778043353 | 35.56° C | 45% | 974 hPa | - | - | 0 W/m² | - |
| 1778042728 | 35.56° C | 44% | 975 hPa | - | - | 0 W/m² | - |
| 1778042104 | 36.11° C | 44% | 975 hPa | - | - | 0 W/m² | - |
| 1778041479 | 35.56° C | 45% | 975 hPa | - | - | 0 W/m² | - |
| 1778040231 | 35.56° C | 45% | 975 hPa | - | - | 0 W/m² | - |
| 1778039606 | 35° C | 47% | 975 hPa | - | - | 0 W/m² | - |
| 1778038982 | 34.44° C | 48% | 975 hPa | - | - | 0 W/m² | - |
| 1778037109 | 34.44° C | 47% | 976 hPa | - | - | 0 W/m² | - |
| 1778036485 | 35° C | 47% | 976 hPa | - | - | 0 W/m² | - |
| 1778035861 | 34.44° C | 47% | 976 hPa | - | - | 0 W/m² | - |
| 1778034612 | 34.44° C | 48% | 976 hPa | - | - | 0 W/m² | - |
| 1778033988 | 33.89° C | 49% | 976 hPa | - | - | 0 W/m² | - |
| 1778033364 | 33.89° C | 49% | 976 hPa | - | - | 0 W/m² | - |
| 1778032740 | 33.33° C | 52% | 976 hPa | - | - | 0 W/m² | - |
| 1778032116 | 32.78° C | 55% | 976 hPa | - | - | 0 W/m² | - |
| 1778030867 | 32.78° C | 54% | 976 hPa | - | - | 0 W/m² | - |
| 1778030243 | 32.78° C | 54% | 976 hPa | - | - | 0 W/m² | - |
| 1778028370 | 32.22° C | 55% | 976 hPa | - | - | 0 W/m² | - |
| 1778027746 | 32.22° C | 55% | 975 hPa | - | - | 0 W/m² | - |
| 1778027122 | 32.22° C | 55% | 975 hPa | - | - | 0 W/m² | - |
| 1778022753 | 31.67° C | 56% | 975 hPa | - | - | 0 W/m² | - |
| 1778021505 | 32.22° C | 54% | 975 hPa | - | - | 0 W/m² | - |
| 1778020879 | 33.33° C | 51% | 974 hPa | - | - | 0 W/m² | - |
* Rain since midnight (hover to see other rain measurements)
** Current wind speed in m/s (hover to see current wind gust speed)